Saint Petersburg Beach, Florida
Current Conditions -  °F | °C
As of 2:53 AM on Tuesday 27 Jan 2015 (Local Time) from KSPG Reporting Station
Clear Clear  
Wind Chill: 55°   Ceiling: Unl
Heat Index: 55°   Visibility: 10mi
Dew Point: 44°   Wind: 8mph
Humidity: 67%   Direction: 360°N
Pressure: 29.98"   Gusts: NA
Location:  27.7254°N, 82.7422°W
Report Text: KSPG 270753Z AUTO 36007KT 10SM CLR 13/07 A2998 RMK AO2 SLP151 T01280067
Loading
Personal Weather Stations






























Interactive Weather Map New forecast layout! Learn more

10-Day Weather Forecast

Advertisements
Track Severe Weather on mobile